Latest Coastal Weather Observations for Cape Nelson

IDV60701

Issued at 6:21 pm EDT Sunday 26 March 2017 (issued every 10 minutes, with the page automatically refreshed every 10 minutes)

About coastal observations | Map of coastal stations | Coastal observations for VIC | Marine services | Other Formats
Station Details ID: 090184 Name: CAPE NELSON LIGHTHOUSE Lat: -38.43 Lon: 141.54 Height: 45.4 m
Data from the previous 72 hours. | See also: Recent months at Cape Nelson
Date/Time
EDT
Temp
°C
Wind Pressure Rain since
9am
mm
Weather Cloud Vis
km
Sea
Height
m
Swell
Dir  Spd
kts
Gust
kts
hPa Trend Height
m
Period
s
Dir
26/06:00pm 19.0 ENE 10 15 1009.6 - 0.0 - - - - - - -
26/05:30pm 19.0 ENE 13 16 1009.7 - 0.0 - - - - - - -
26/05:00pm 19.7 ENE 11 15 1010.0 - 0.0 - - - - - - -
26/04:30pm 20.4 ENE 10 14 1010.3 - 0.0 - - - - - - -
26/04:00pm 20.6 ENE 10 13 1011.1 - 0.0 - - - - - - -
26/03:30pm 20.4 E 10 13 1011.6 - 0.0 - - - - - - -
26/03:00pm 21.0 E 9 11 1012.2 - 0.0 - - - - - - -
26/02:30pm 20.4 E 10 13 1012.4 - 0.0 - - - - - - -
26/02:00pm 20.6 E 9 12 1012.8 - 0.0 - - - - - - -
26/01:30pm 19.9 E 10 13 1013.3 - 0.0 - - - - - - -
26/01:00pm 20.1 E 10 13 1013.9 - 0.0 - - - - - - -
26/12:30pm 19.2 E 9 13 1014.0 - 0.0 - - - - - - -
26/12:00pm 19.1 E 10 13 1014.2 - 0.0 - - - - - - -
26/11:30am 19.1 E 8 11 1014.8 - 0.0 - - - - - - -
26/11:00am 18.1 E 9 10 1014.7 - 0.0 - - - - - - -
26/10:30am 18.2 ESE 5 7 1015.0 - 0.0 - - - - - - -
26/10:00am 17.9 ESE 4 7 1015.3 - 0.0 - - - - - - -
26/09:30am 17.5 SE 3 4 1015.4 - 0.0 - - - - - - -
26/09:00am 17.4 SSE 5 7 1015.3 - 0.0 - - - - - - -
26/08:30am 17.2 SE 4 6 1015.0 - 0.0 - - - - - - -
26/08:00am 16.9 ESE 5 9 1014.8 - 0.0 - - - - - - -
26/07:30am 16.8 ESE 3 5 1014.4 - 0.0 - - - - - - -
26/07:00am 16.8 ESE 2 6 1014.0 - 0.0 - - - - - - -
26/06:30am 16.7 CALM 0 0 1014.1 - 0.0 - - - - - - -
26/06:00am 16.8 S 2 5 1013.9 - 0.0 - - - - - - -
26/05:30am 16.7 CALM 0 0 1013.8 - 0.0 - - - - - - -
26/05:00am 16.7 CALM 0 0 1013.8 - 0.0 - - - - - - -
26/04:30am 16.7 CALM 0 0 1013.8 - 0.0 - - - - - - -
26/04:00am 16.8 CALM 0 0 1014.0 - 0.0 - - - - - - -
26/03:30am 16.9 CALM 0 0 1014.3 - 0.0 - - - - - - -
26/03:00am 17.0 S 3 5 1014.1 - 0.0 - - - - - - -
26/02:30am 17.0 S 3 5 1014.6 - 0.0 - - - - - - -
26/02:00am 17.1 CALM 0 0 1014.7 - 0.0 - - - - - - -
26/01:30am 17.2 SW 2 5 1014.7 - 0.0 - - - - - - -
26/01:00am 17.2 SW 3 4 1014.9 - 0.0 - - - - - - -
26/12:30am 17.3 S 7 10 1014.7 - 0.0 - - - - - - -
26/12:00am 17.4 N 4 6 1015.2 - 0.0 - - - - - - -
 
Date/Time
EDT
Temp
°C
Wind Pressure Rain since
9am
mm
Weather Cloud Vis
km
Sea
Height
m
Swell
Dir  Spd
kts
Gust
kts
hPa Trend Height
m
Period
s
Dir
25/11:30pm 17.6 S 8 10 1015.0 - 0.0 - - - - - - -
25/11:00pm 17.7 ESE 4 7 1015.2 - 0.0 - - - - - - -
25/10:30pm 17.2 SE 5 8 1015.2 - 0.0 - - - - - - -
25/10:00pm 17.7 S 10 12 1014.9 - 0.0 - - - - - - -
25/09:30pm 17.7 S 10 13 1014.8 - 0.0 - - - - - - -
25/09:00pm 17.8 S 5 8 1014.4 - 0.0 - - - - - - -
25/08:30pm 17.7 W 6 11 1014.1 - 0.0 - - - - - - -
25/08:00pm 17.8 NNW 3 5 1013.7 - 0.0 - - - - - - -
25/07:30pm 17.9 NNW 5 7 1013.7 - 0.0 - - - - - - -
25/07:00pm 18.0 WNW 6 9 1013.4 - 0.0 - - - - - - -
25/06:30pm 17.9 W 8 9 1013.2 - 0.0 - - - - - - -
25/06:00pm 18.1 W 8 10 1013.0 - 0.0 - - - - - - -
25/05:30pm 18.2 W 7 10 1012.8 - 0.0 - - - - - - -
25/05:00pm 18.5 W 7 11 1012.7 - 0.0 - - - - - - -
25/04:30pm 19.0 W 7 10 1012.5 - 0.0 - - - - - - -
25/04:00pm 19.3 N 6 8 1012.1 - 0.0 - - - - - - -
25/03:30pm 18.5 N 7 11 1012.2 - 0.0 - - - - - - -
25/03:00pm 18.3 W 11 16 1012.2 - 0.0 - - - - - - -
25/02:30pm 19.4 W 10 14 1012.2 - 0.0 - - - - - - -
25/02:00pm 19.7 W 10 15 1012.1 - 0.0 - - - - - - -
25/01:30pm 20.2 WNW 11 13 1012.2 - 0.0 - - - - - - -
25/01:00pm 20.1 WNW 11 14 1012.3 - 0.0 - - - - - - -
25/12:30pm 21.1 WNW 10 13 1012.5 - 0.0 - - - - - - -
25/12:00pm 22.5 WNW 8 10 1012.5 - 0.0 - - - - - - -
25/11:30am 23.3 WNW 9 11 1012.4 - 0.0 - - - - - - -
25/11:00am 22.9 WNW 9 11 1012.3 - 0.0 - - - - - - -
25/10:30am 22.8 WNW 8 12 1012.2 - 0.0 - - - - - - -
25/10:00am 22.3 WNW 9 11 1012.2 - 0.0 - - - - - - -
25/09:30am 22.2 WNW 9 12 1011.8 - 0.0 - - - - - - -
25/09:00am 20.0 NW 8 9 1011.4 - 0.2 - - - - - - -
25/08:30am 19.2 NNW 7 9 1011.4 - 0.2 - - - - - - -
25/08:00am 18.6 NW 7 8 1011.1 - 0.2 - - - - - - -
25/07:30am 18.3 WNW 8 10 1010.9 - 0.2 - - - - - - -
25/07:00am 17.8 WNW 7 8 1010.5 - 0.2 - - - - - - -
25/06:30am 17.9 WNW 8 11 1010.4 - 0.2 - - - - - - -
25/06:00am 20.9 NNW 8 12 1010.2 - 0.2 - - - - - - -
25/05:30am 20.6 N 10 13 1010.0 - 0.2 - - - - - - -
25/05:00am 20.6 N 12 17 1009.9 - 0.2 - - - - - - -
25/04:30am 20.1 N 13 19 1009.9 - 0.2 - - - - - - -
25/04:00am 19.1 N 11 15 1010.1 - 0.2 - - - - - - -
25/03:30am 18.5 NNE 10 12 1010.4 - 0.2 - - - - - - -
25/03:00am 18.4 NNE 10 13 1010.7 - 0.2 - - - - - - -
25/02:30am 18.0 NNE 9 15 1011.0 - 0.2 - - - - - - -
25/02:00am 18.0 NE 12 14 1011.1 - 0.2 - - - - - - -
25/01:30am 18.0 NE 10 13 1011.4 - 0.2 - - - - - - -
25/01:00am 17.8 NE 10 11 1011.9 - 0.2 - - - - - - -
25/12:30am 17.6 NE 9 13 1012.5 - 0.2 - - - - - - -
25/12:00am 17.4 NE 12 15 1012.7 - 0.2 - - - - - - -
 
Date/Time
EDT
Temp
°C
Wind Pressure Rain since
9am
mm
Weather Cloud Vis
km
Sea
Height
m
Swell
Dir  Spd
kts
Gust
kts
hPa Trend Height
m
Period
s
Dir
24/11:30pm 17.2 NE 10 12 1012.7 - 0.2 - - - - - - -
24/11:00pm 17.1 NE 11 13 1013.1 - 0.2 - - - - - - -
24/10:30pm 17.6 NE 7 9 1014.2 - 0.0 - - - - - - -
24/10:00pm 17.6 NE 6 8 1014.7 - 0.0 - - - - - - -
24/09:30pm 17.6 NE 8 11 1014.3 - 0.0 - - - - - - -
24/09:00pm 17.4 NE 9 11 1014.4 - 0.0 - - - - - - -
24/08:30pm 17.4 NE 9 11 1014.1 - 0.0 - - - - - - -
24/08:00pm 17.6 NE 8 11 1014.3 - 0.0 - - - - - - -
24/07:30pm 17.8 ENE 8 10 1014.6 - 0.0 - - - - - - -
24/07:00pm 18.0 ENE 8 11 1014.9 - 0.0 - - - - - - -
24/06:30pm 18.3 E 7 10 1015.2 - 0.0 - - - - - - -
24/06:00pm 18.4 E 8 10 1015.4 - 0.0 - - - - - - -
24/05:30pm 18.3 ENE 9 11 1015.2 - 0.0 - - - - - - -
24/05:00pm 18.7 E 7 10 1015.4 - 0.0 - - - - - - -
24/04:30pm 18.7 ENE 8 11 1015.1 - 0.0 - - - - - - -
24/04:00pm 19.2 ENE 8 11 1015.5 - 0.0 - - - - - - -
24/03:30pm 18.9 E 9 13 1015.2 - 0.0 - - - - - - -
24/03:00pm 18.8 E 11 14 1015.6 - 0.0 - - - - - - -
24/02:30pm 19.1 E 11 16 1016.1 - 0.0 - - - - - - -
24/02:00pm 17.8 ENE 12 16 1016.4 - 0.0 - - - - - - -
24/01:30pm 18.5 E 13 18 1016.7 - 0.0 - - - - - - -
24/01:00pm 17.8 ENE 15 20 1017.3 - 0.0 - - - - - - -
24/12:30pm 17.1 ENE 16 21 1017.7 - 0.0 - - - - - - -
24/12:00pm 17.3 ENE 18 22 1018.1 - 0.0 - - - - - - -
24/11:30am 17.3 ENE 16 22 1018.6 - 0.0 - - - - - - -
24/11:00am 17.0 ENE 14 21 1018.8 - 0.0 - - - - - - -
24/10:30am 16.4 ENE 15 21 1018.9 - 0.0 - - - - - - -
24/10:00am 16.5 ENE 17 22 1018.9 - 0.0 - - - - - - -
24/09:30am 16.2 ENE 15 21 1019.2 - 0.0 - - - - - - -
24/09:00am 15.9 ENE 16 22 1019.2 - 0.0 - - - - - - -
24/08:30am 15.9 ENE 17 23 1019.1 - 0.0 - - - - - - -
24/08:00am 15.7 ENE 15 21 1019.0 - 0.0 - - - - - - -
24/07:30am 15.6 ENE 14 20 1019.0 - 0.0 - - - - - - -
24/07:00am 15.6 ENE 15 19 1018.4 - 0.0 - - - - - - -
24/06:30am 15.5 E 15 20 1018.2 - 0.0 - - - - - - -
24/06:00am 15.5 ENE 14 19 1018.2 - 0.0 - - - - - - -
24/05:30am 15.4 ENE 15 20 1018.1 - 0.0 - - - - - - -
24/05:00am 15.5 ENE 14 19 1018.3 - 0.0 - - - - - - -
24/04:30am 15.6 ENE 14 18 1018.6 - 0.0 - - - - - - -
24/04:00am 15.6 ENE 12 17 1018.9 - 0.0 - - - - - - -
24/03:30am 15.8 ENE 11 17 1019.0 - 0.0 - - - - - - -
24/03:00am 15.9 ENE 10 15 1020.1 - 0.0 - - - - - - -
24/02:30am 16.1 ENE 10 15 1020.3 - 0.0 - - - - - - -
24/02:00am 16.3 E 13 17 1020.3 - 0.0 - - - - - - -
24/01:30am 16.3 E 18 21 1020.2 - 0.0 - - - - - - -
24/01:00am 16.4 E 18 21 1020.4 - 0.0 - - - - - - -
24/12:30am 16.4 E 19 23 1020.9 - 0.0 - - - - - - -
24/12:00am 16.4 E 21 24 1020.8 - 0.0 - - - - - - -
 
Date/Time
EDT
Temp
°C
Wind Pressure Rain since
9am
mm
Weather Cloud Vis
km
Sea
Height
m
Swell
Dir  Spd
kts
Gust
kts
hPa Trend Height
m
Period
s
Dir
23/11:30pm 16.4 E 19 24 1020.9 - 0.0 - - - - - - -
23/11:00pm 16.5 E 24 29 1020.6 - 0.0 - - - - - - -
23/10:30pm 16.7 E 24 28 1021.0 - 0.0 - - - - - - -
23/10:00pm 16.7 E 23 29 1021.2 - 0.0 - - - - - - -
23/09:30pm 16.8 E 23 29 1021.0 - 0.0 - - - - - - -
23/09:00pm 16.8 E 21 29 1020.8 - 0.0 - - - - - - -
23/08:30pm 16.9 E 22 30 1020.3 - 0.0 - - - - - - -
23/08:00pm 16.9 E 21 31 1019.9 - 0.0 - - - - - - -
23/07:58pm 16.8 E 21 31 1019.9 - 0.0 - - - - - - -
23/07:30pm 17.0 ESE 18 27 1020.1 - 0.0 - - - - - - -
23/07:00pm 17.1 ESE 17 24 1019.8 - 0.0 - - - - - - -
23/06:49pm 17.2 ESE 15 25 1019.7 - 0.0 - - - - - - -
23/06:30pm 17.4 ESE 15 24 1019.9 - 0.0 - - - - - - -

Other Formats:

Comma delimited format used in spreadsheet applications
http://www.bom.gov.au/fwo/IDV60701/IDV60701.94826.axf

JavaScript Object Notation format (JSON) in row-major order
http://www.bom.gov.au/fwo/IDV60701/IDV60701.94826.json